Terminal Aerodrome Forecast
Issued by NWS Burlington, VT

Home | Current Version | Previous Version | Text Only | Print | Product List | Glossary On
Versions: 1 2 3 4 5 6 7 8 9 10 11 12 13
000
FTUS41 KBTV 031133
TAFBTV
TAF
KBTV 031133Z 0312/0412 00000KT 6SM BR BKN025 OVC040
     FM031500 35006KT P6SM VCSH SCT025 BKN045
     FM031900 35008KT P6SM SCT050
     FM032200 36006KT P6SM FEW200=

USA.gov is the U.S. government's official web portal to all federal, state and local government web resources and services.